Tiempo atmosférico en la estación meteorológica de La Póveda de Soria, Barriomartín, Soria (1260 m.)



Fecha
DESCASC
Temp. máxima en grados centígrados (hora)
DESCASC
Temp. mínima en grados centígrados (hora)
DESCASC
Temp. media en grados centígrados
DESCASC
Racha de viento máxima en m/sg (hora)
DESCASC
Velocidad máxima media en intervalos de 10 minutos(hora)
DESCASC
Precipitaciones diarias en mm
DESCASC
Precipitaciones de 00:00 a 06:00 en mm
DESCASC
Precipitaciones de 06:00 a 12:00 en mm
DESCASC
Precipitaciones de 12:00 a 18:00 en mm
DESCASC
Precipitaciones de 18:00 a 24:00 en mm
DESCASC
22-01-2020 4.9 (12:50) -0.1 (23:59) 2.4 12.5 (02:50) 7.5 (03:00) 1.4 1.2 0.2 0 0
21-01-2020 2.9 (23:59) -1.5 (01:00) 0.7 11.67 (03:10) 7.5 (00:20) 8.6 0 0.8 3.4 4.4
20-01-2020 -0.7 (23:59) -5.9 (08:00) -3.3 19.44 (06:50) 11.67 (03:50) 0 0 0 0 0
19-01-2020 0.9 (00:40) -4.6 (-00:0) -1.8 21.11 (17:10) 13.33 (17:10) 1.2 0.6 0.6 0 0
18-01-2020 5.9 (15:40) -3 (-00:0) 1.5 14.17 (21:10) 8.89 (21:10) 3.6 0 0 0.8 2.8
17-01-2020 7.9 (13:40) -2.6 (-00:0) 2.7 13.89 (13:00) 6.39 (13:00) 1.2 0.8 0.4 0 0
16-01-2020 8.8 (16:00) 1.6 (00:00) 5.2 10.83 (16:40) 6.11 (16:40) 0.6 0 0.2 0 0.4
15-01-2020 3.7 (18:10) -0.7 (-00:0) 1.5 5.56 (19:10) 3.06 (19:10) 0.6 0 0 0.6 0
14-01-2020 6.6 (14:40) -4.5 (-00:0) 1 7.5 (14:50) 5 (14:50) 0 0 0 0 0
13-01-2020 8.4 (16:40) -3.5 (-00:0) 2.4 10.28 (16:50) 4.17 (17:00) 0 0 0 0 0
12-01-2020 11.3 (15:20) -4.5 (02:10) 3.4 9.72 (10:00) 6.39 (10:00) 0 0 0 0 0
11-01-2020 10.4 (15:30) -2.9 (-00:0) 3.7 7.5 (07:20) 5.28 (07:20) 0 0 0 0 0
10-01-2020 5.7 (00:00) 0.3 (00:00) 3 17.22 (10:20) 11.67 (10:20) 0.6 0.2 0.4 0 0
09-01-2020 11.9 (14:30) -1.1 (-00:0) 5.4 9.72 (20:10) 4.72 (14:50) 0 0 0 0 0
08-01-2020 14.6 (14:40) 0.6 (00:00) 7.6 9.72 (05:50) 6.94 (02:20) 0 0 0 0 0
07-01-2020 14.6 (14:10) -0.7 (-00:0) 7 7.78 (21:30) 5.28 (21:30) 0 0 0 0 0
06-01-2020 13.1 (14:30) -1.8 (-00:0) 5.7 5 (23:50) 3.61 (23:59) 0 0 0 0 0
05-01-2020 15.5 (15:20) -0.4 (00:00) 7.5 11.11 (08:50) 6.94 (08:50) 0 0 0 0 0
04-01-2020 6.6 (13:30) 0.2 (00:00) 3.4 12.5 (11:30) 7.78 (11:30) 0 0 0 0 0
03-01-2020 9.4 (12:50) -1.9 (-00:0) 3.7 8.33 (23:30) 5.83 (23:40) 0 0 0 0 0
02-01-2020 13.3 (15:10) -1.3 (-00:0) 6 4.17 (20:30) 2.78 (06:00) 0 0 0 0 0
01-01-2020 14.9 (13:40) -0.7 (-00:0) 7.1 -- (--) -- (--) -- -- 0 0 0
31-12-2019 -- (--) -- (--) -- -- (--) -- (--) -- -- -- -- 0
30-12-2019 -- (--) -- (--) -- -- (--) -- (--) -- 0 0 -- 0
29-12-2019 16.9 (15:10) 2.6 (00:00) 9.7 6.39 (08:50) 4.17 (06:40) 0 0 0 0 0
28-12-2019 15.5 (14:10) 2.4 (00:00) 9 6.67 (04:00) 4.72 (03:10) 0 0 0 0 0
27-12-2019 15.9 (14:20) -0.5 (-00:0) 7.7 6.67 (06:30) 5 (06:10) 0 0 0 0 0
26-12-2019 10.7 (15:10) -0.5 (-00:0) 5.1 10.28 (12:20) 6.67 (09:50) 0 0 0 0 0
25-12-2019 15.2 (12:50) 0.7 (00:00) 7.9 5.28 (13:20) 3.89 (13:10) 0 0 0 0 0

Gráficas

Temp. máximas Temp. mínimas Temp. medias Precipitaciones Rachas de viento máximas Velocidades máximas media en intervalos de 10 minutos

Datos horarios

Fecha y hora oficial Temperatura (ºC) Velocidad del viento (km/h) Dirección del viento Racha (km/h) Dirección de racha Precipitación (mm) Presión (hPa) Tendencia (hPa) Humedad (%)
2020-01-23 23:00:00 2 5 Sur 15 Sur 0 -- -- 95
2020-01-23 22:00:00 2.4 9 Sur 15 Sur 0 -- -- 94
2020-01-23 21:00:00 2.7 7 Sur 14 Sur 0 -- -- 93
2020-01-23 20:00:00 3.1 7 Sur 17 Sur 0 -- -- 90
2020-01-23 19:00:00 3.3 7 Sur 15 Sur 0 -- -- 88
2020-01-23 18:00:00 3.7 9 Sur 17 Sur 0 -- -- 85
2020-01-23 17:00:00 4.5 13 Sur 24 Sudeste 0 -- -- 81
2020-01-23 16:00:00 4.9 8 Sudeste 26 Sur 0 -- -- 80
2020-01-23 15:00:00 4.7 6 Este 14 Sur 0 -- -- 85
2020-01-23 14:00:00 2.7 0 Calma 9 Sudeste 0 -- -- 91
2020-01-23 13:00:00 1.6 7 Sudeste 10 Sudeste 0 -- -- 92
2020-01-23 12:00:00 1.6 6 Sudeste 12 Sudeste 0 -- -- 92
2020-01-23 11:00:00 0.8 0 Calma 6 Noroeste 0 -- -- 97
2020-01-23 10:00:00 0 2 Norte 5 Nordeste 0 -- -- 97
2020-01-23 09:00:00 -0.2 5 Oeste 8 Oeste 0 -- -- 97
2020-01-23 08:00:00 -0.2 0 Calma 5 Norte 0 -- -- 97
2020-01-23 07:00:00 -0.2 2 Norte 4 Norte 0 -- -- 97
2020-01-23 06:00:00 0.1 3 Norte 4 Noroeste 0 -- -- 97
2020-01-23 05:00:00 0.1 0 Calma 7 Sur 0 -- -- 96
2020-01-23 04:00:00 0.1 3 Sudeste 7 Sur 0 -- -- 95
2020-01-23 03:00:00 0 0 Calma 4 Noroeste 0 -- -- 95
2020-01-23 02:00:00 -0.2 3 Norte 5 Norte 0 -- -- 95
2020-01-23 01:00:00 -1.1 3 Norte 5 Norte 0 -- -- 93
2020-01-23 00:00:00 -0.1 0 Calma 8 Noroeste 0 -- -- 91
2020-01-22 23:00:00 1.4 3 Norte 20 Nordeste 0 -- -- 88
2020-01-22 22:00:00 1.8 5 Nordeste 14 Nordeste 0 -- -- 87
2020-01-22 21:00:00 1.8 6 Nordeste 11 Nordeste 0 -- -- 89
2020-01-22 20:00:00 1.8 3 Sur 11 Sudeste 0 -- -- 88
2020-01-22 19:00:00 2.1 3 Norte 8 Este 0 -- -- 88
2020-01-22 18:00:00 2.4 3 Este 13 Nordeste 0 -- -- 88
2020-01-22 17:00:00 3 8 Este 16 Este 0 -- -- 83
2020-01-22 16:00:00 3.5 9 Este 19 Nordeste 0 -- -- 82
2020-01-22 15:00:00 4.2 6 Este 16 Este 0 -- -- 79
2020-01-22 14:00:00 4.1 10 Este 21 Este 0 -- -- 82
2020-01-22 13:00:00 4.9 0 Calma 8 Sudoeste 0 -- -- 84
2020-01-22 12:00:00 3.4 4 Sur 19 Este 0 -- -- 88
2020-01-22 11:00:00 2.7 10 Este 23 Este 0 -- -- 88
2020-01-22 10:00:00 2.6 0 Calma 6 Sudeste 0.2 -- -- 89
2020-01-22 09:00:00 1.6 8 Este 18 Este 0 -- -- 87
2020-01-22 08:00:00 1.6 8 Nordeste 23 Este 0 -- -- 91
2020-01-22 07:00:00 0.8 5 Este 21 Este 0 -- -- 94
2020-01-22 06:00:00 0.6 5 Norte 17 Sudoeste 0 -- -- 93
2020-01-22 05:00:00 0.5 3 Noroeste 28 Este 0 -- -- 93
2020-01-22 04:00:00 0.5 21 Nordeste 44 Este 0.2 -- -- 90
2020-01-22 03:00:00 0.6 27 Nordeste 45 Nordeste 0.2 -- -- 91
2020-01-22 02:00:00 1.2 10 Nordeste 31 Nordeste 0.8 -- -- 89
2020-01-22 01:00:00 2.6 8 Nordeste 28 Norte 0 -- -- 87
2020-01-22 00:00:00 2.9 13 Nordeste 35 Norte 0 -- -- 87
2020-01-21 23:00:00 2.4 11 Nordeste 36 Norte 0.2 -- -- 89
2020-01-21 22:00:00 2.1 12 Nordeste 39 Nordeste 0.6 -- -- 92
2020-01-21 21:00:00 2.7 17 Nordeste 40 Este 1.2 -- -- 92
2020-01-21 20:00:00 2.3 18 Nordeste 41 Nordeste 1.2 -- -- 93
2020-01-21 19:00:00 1.9 14 Nordeste 35 Nordeste 1.2 -- -- 92
2020-01-21 18:00:00 1.9 15 Norte 34 Norte 0.4 -- -- 92
2020-01-21 17:00:00 0.9 19 Norte 32 Norte 0.8 -- -- 94
2020-01-21 16:00:00 0.7 21 Norte 35 Norte 0.4 -- -- 94
2020-01-21 15:00:00 0.7 23 Norte 39 Norte 0.4 -- -- 94
2020-01-21 14:00:00 0.5 19 Norte 35 Norte 0.6 -- -- 94
2020-01-21 13:00:00 0.8 23 Norte 37 Nordeste 0.8 -- -- 93
2020-01-21 12:00:00 1.2 18 Nordeste 38 Norte 0.4 -- -- 89
2020-01-21 11:00:00 1.1 21 Norte 32 Norte 0.2 -- -- 89
2020-01-21 10:00:00 0 18 Norte 37 Norte 0 -- -- 90
2020-01-21 09:00:00 0 22 Norte 42 Norte 0 -- -- 92
2020-01-21 08:00:00 0.6 24 Nordeste 41 Nordeste 0 -- -- 88
2020-01-21 07:00:00 0.8 19 Nordeste 39 Nordeste 0.2 -- -- 87
2020-01-21 06:00:00 1 17 Nordeste 37 Nordeste 0 -- -- 87
2020-01-21 05:00:00 0.8 18 Nordeste 36 Norte 0 -- -- 88
2020-01-21 04:00:00 0.1 23 Norte 42 Norte 0 -- -- 86
2020-01-21 03:00:00 -0.7 19 Norte 40 Norte 0 -- -- 82
2020-01-21 02:00:00 -0.2 21 Nordeste 42 Nordeste 0 -- -- 70
2020-01-21 01:00:00 -1.5 19 Norte 41 Norte 0 -- -- 72
2020-01-21 00:00:00 -0.7 20 Norte 29 Norte 0 -- -- 68
2020-01-20 23:00:00 -1.4 15 Norte 33 Nordeste 0 -- -- 70
2020-01-20 22:00:00 -2.1 18 Norte 33 Norte 0 -- -- 74
2020-01-20 21:00:00 -2.5 14 Norte 34 Norte 0 -- -- 75
2020-01-20 20:00:00 -3.2 17 Norte 35 Norte 0 -- -- 75
2020-01-20 19:00:00 -3.3 17 Norte 35 Noroeste 0 -- -- 76
2020-01-20 18:00:00 -3.1 22 Norte 33 Norte 0 -- -- 75
2020-01-20 17:00:00 -2.9 21 Norte 33 Norte 0 -- -- 74
2020-01-20 16:00:00 -3.1 21 Norte 40 Norte 0 -- -- 75
2020-01-20 15:00:00 -2.5 23 Norte 33 Norte 0 -- -- 73
2020-01-20 14:00:00 -2.8 23 Norte 40 Norte 0 -- -- 71
2020-01-20 13:00:00 -3.6 33 Norte 52 Norte 0 -- -- 75
2020-01-20 12:00:00 -4.1 29 Norte 51 Norte 0 -- -- 77
2020-01-20 11:00:00 -4.6 32 Norte 50 Norte 0 -- -- 80
2020-01-20 10:00:00 -4.7 30 Norte 55 Norte 0 -- -- 79
2020-01-20 09:00:00 -5.8 32 Norte 57 Norte 0 -- -- 80
2020-01-20 08:00:00 -5.9 36 Norte 63 Norte 0 -- -- 80
2020-01-20 07:00:00 -5.5 41 Norte 70 Norte 0 -- -- 77
2020-01-20 06:00:00 -5.4 38 Norte 62 Norte 0 -- -- 79
2020-01-20 05:00:00 -5.4 35 Norte 58 Norte 0 -- -- 77
2020-01-20 04:00:00 -5.3 35 Norte 62 Norte 0 -- -- 76
2020-01-20 03:00:00 -5.2 37 Norte 60 Norte 0 -- -- 79
2020-01-20 02:00:00 -4.9 36 Norte 59 Norte 0 -- -- 78
2020-01-20 01:00:00 -4.8 39 Norte 64 Norte 0 -- -- 80
2020-01-20 00:00:00 -4.6 32 Norte 64 Norte 0 -- -- 79
2020-01-19 23:00:00 -4.2 34 Norte 57 Norte 0 -- -- 80
2020-01-19 22:00:00 -3.8 39 Norte 61 Norte 0 -- -- 79
2020-01-19 21:00:00 -3.5 38 Norte 63 Norte 0 -- -- 79
2020-01-19 20:00:00 -3.3 34 Norte 66 Norte 0 -- -- 80
2020-01-19 19:00:00 -3.2 43 Norte 74 Norte 0 -- -- 79
2020-01-19 18:00:00 -2.7 40 Norte 76 Norte 0 -- -- 79
2020-01-19 17:00:00 -1.9 41 Norte 73 Norte 0 -- -- 78
2020-01-19 16:00:00 -1.2 42 Norte 69 Norte 0 -- -- 77
2020-01-19 15:00:00 -0.8 44 Norte 72 Norte 0 -- -- 79
2020-01-19 14:00:00 -1.1 42 Norte 72 Norte 0 -- -- 79
2020-01-19 13:00:00 -1.4 39 Norte 60 Nordeste 0 -- -- 82
2020-01-19 12:00:00 -1.1 25 Norte 64 Norte 0 -- -- 84
2020-01-19 11:00:00 -0.6 40 Norte 67 Norte 0 -- -- 89
2020-01-19 10:00:00 -1 0 Calma -- -- 0 -- -- 94
2020-01-19 09:00:00 -0.8 0 Calma 57 Norte 0 -- -- 96
2020-01-19 08:00:00 0.3 18 Norte 49 Norte 0.4 -- -- 96
2020-01-19 07:00:00 0.3 17 Norte 35 Norte 0.2 -- -- 96
2020-01-19 06:00:00 0.3 21 Norte 35 Nordeste 0.2 -- -- 95
2020-01-19 05:00:00 0.4 16 Norte 32 Norte 0 -- -- 93
2020-01-19 04:00:00 0.5 14 Norte 28 Norte 0.2 -- -- 94
2020-01-19 03:00:00 0.8 16 Norte 34 Norte 0.2 -- -- 93
2020-01-19 02:00:00 0.7 14 Norte 23 Norte 0 -- -- 92
2020-01-19 01:00:00 0.8 7 Norte 23 Nordeste 0 -- -- 90
2020-01-19 00:00:00 0.6 9 Norte 15 Norte 0 -- -- 90
2020-01-18 23:00:00 0.3 5 Norte 16 Norte 0 -- -- 92
2020-01-18 22:00:00 0.8 3 Este 51 Noroeste 0 -- -- 90
2020-01-18 21:00:00 1.2 27 Noroeste 49 Noroeste 0.4 -- -- 91
2020-01-18 20:00:00 3.8 8 Sudoeste 17 Oeste 1.6 -- -- 96
2020-01-18 19:00:00 3.7 4 Sudeste 14 Sudeste 0.8 -- -- 96
2020-01-18 18:00:00 3.9 4 Este 28 Sudoeste 0.6 -- -- 94
2020-01-18 17:00:00 4.2 21 Sudoeste 38 Sudoeste 0 -- -- 92
2020-01-18 16:00:00 5.7 5 Sur 31 Sudeste 0 -- -- 89
2020-01-18 15:00:00 3.8 13 Sudeste 24 Sudeste 0.2 -- -- 96
2020-01-18 14:00:00 2.8 8 Sudeste 19 Sur 0 -- -- 95
2020-01-18 13:00:00 2.8 13 Sur 23 Sudeste 0 -- -- 86
2020-01-18 12:00:00 2.6 9 Sur 22 Sudeste 0 -- -- 83
2020-01-18 11:00:00 1.4 12 Sur 20 Sudeste 0 -- -- 87
2020-01-18 10:00:00 -0.3 4 Sur 10 Sudoeste 0 -- -- 87
2020-01-18 09:00:00 -0.9 3 Sur 5 Sudeste 0 -- -- 86
2020-01-18 08:00:00 -1 4 Sudoeste 9 Oeste 0 -- -- 86
2020-01-18 07:00:00 -1.2 4 Norte 8 Nordeste 0 -- -- 86
2020-01-18 06:00:00 -1.6 3 Oeste 4 Noroeste 0 -- -- 86
2020-01-18 05:00:00 -1.5 0 Calma 7 Sudoeste 0 -- -- 83
2020-01-18 04:00:00 -1.3 2 Este 8 Norte 0 -- -- 82
2020-01-18 03:00:00 -2.1 7 Norte 9 Norte 0 -- -- 85
2020-01-18 02:00:00 -2 0 Calma 10 Norte 0 -- -- 83
2020-01-18 01:00:00 -3 4 Norte 10 Norte 0 -- -- 84
2020-01-18 00:00:00 -2.6 6 Norte 13 Norte 0 -- -- 83
2020-01-17 23:00:00 -2.4 3 Norte 13 Noroeste 0 -- -- 83
2020-01-17 22:00:00 -1.6 8 Noroeste 11 Norte 0 -- -- 80
2020-01-17 21:00:00 0.1 3 Sudeste 13 Noroeste 0 -- -- 74
2020-01-17 20:00:00 0.9 7 Norte 12 Noroeste 0 -- -- 70
2020-01-17 19:00:00 2.1 3 Norte 19 Noroeste 0 -- -- 63
2020-01-17 18:00:00 2.9 4 Noroeste 18 Sudoeste 0 -- -- 62
2020-01-17 17:00:00 4.8 6 Oeste 31 Oeste 0 -- -- 55
2020-01-17 16:00:00 5.5 11 Noroeste 32 Oeste 0 -- -- 57
2020-01-17 15:00:00 6.3 18 Oeste 30 Oeste 0 -- -- 53
2020-01-17 14:00:00 5.8 14 Noroeste 34 Oeste 0 -- -- 57
2020-01-17 13:00:00 7.3 23 Oeste 50 Oeste 0 -- -- 55
2020-01-17 12:00:00 7.4 15 Oeste 29 Oeste 0 -- -- 62
2020-01-17 11:00:00 6.1 6 Oeste 38 Oeste 0 -- -- 71
2020-01-17 10:00:00 4.4 4 Sur 17 Sudoeste 0.2 -- -- 91
2020-01-17 09:00:00 3.3 8 Sudoeste 20 Sudoeste 0 -- -- 90
2020-01-17 08:00:00 3.6 5 Sur 23 Sur 0.2 -- -- 90
2020-01-17 07:00:00 3.5 5 Sur 17 Sudoeste 0 -- -- 90
2020-01-17 06:00:00 3.5 6 Sur 13 Sur 0 -- -- 88
2020-01-17 05:00:00 3.7 3 Noroeste 12 Sudoeste 0 -- -- 89
2020-01-17 04:00:00 3.6 2 Este 39 Sudoeste 0 -- -- 91
2020-01-17 03:00:00 2.9 17 Sudoeste 42 Sudoeste 0.2 -- -- 92
2020-01-17 02:00:00 3 13 Sudoeste 32 Sudoeste 0.4 -- -- 92
2020-01-17 01:00:00 3 14 Sudoeste 26 Sudoeste 0.2 -- -- 90
2020-01-17 00:00:00 3.7 11 Sudoeste 23 Sudoeste 0.4 -- -- 87
2020-01-16 23:00:00 4.1 15 Sudoeste 27 Sur 0 -- -- 86
2020-01-16 22:00:00 2.4 7 Sur 21 Sudoeste 0 -- -- 89
2020-01-16 21:00:00 2.9 6 Sur 15 Sur 0 -- -- 86
2020-01-16 20:00:00 3.9 9 Sur 19 Sudoeste 0 -- -- 85
2020-01-16 19:00:00 5 11 Sudoeste 33 Sudoeste 0 -- -- 84
2020-01-16 18:00:00 6.1 16 Sudoeste 38 Sudoeste 0 -- -- 85
2020-01-16 17:00:00 7.7 14 Sur 39 Sur 0 -- -- 81
2020-01-16 16:00:00 8.8 15 Sur 28 Sur 0 -- -- 82
2020-01-16 15:00:00 7.2 11 Sur 27 Sur 0 -- -- 91
2020-01-16 14:00:00 7 9 Sur 16 Sur 0 -- -- 95
2020-01-16 13:00:00 6.2 10 Sur 23 Sudoeste 0 -- -- 95
2020-01-16 12:00:00 5.3 9 Sur 31 Sudoeste 0 -- -- 97
2020-01-16 11:00:00 4.4 13 Sur 25 Sudoeste 0 -- -- 98
2020-01-16 10:00:00 3.3 5 Sur 9 Sur 0 -- -- 99
2020-01-16 09:00:00 2 2 Noroeste 3 Sudoeste 0 -- -- 98
2020-01-16 08:00:00 1.7 3 Norte 7 Sur 0.2 -- -- 98
2020-01-16 07:00:00 1.6 3 Sur 10 Sur 0 -- -- 97
2020-01-16 06:00:00 2.1 5 Sur 8 Sur 0 -- -- 97
2020-01-16 05:00:00 2.5 2 Sudoeste 6 Sudoeste 0 -- -- 97
2020-01-16 04:00:00 2.5 2 Sudoeste 5 Sudoeste 0 -- -- 97
2020-01-16 03:00:00 2.5 0 Calma 11 Sudoeste 0 -- -- 97
2020-01-16 02:00:00 2.5 2 Sudeste 7 Sudoeste 0 -- -- 97
2020-01-16 01:00:00 2.3 0 Calma 4 Sudoeste 0 -- -- 97
2020-01-16 00:00:00 2 0 Calma 4 Noroeste 0 -- -- 97
2020-01-15 23:00:00 1.8 0 Calma 4 Oeste 0 -- -- 96
2020-01-15 22:00:00 1.5 6 Sudoeste 9 Sudoeste 0 -- -- 96
2020-01-15 21:00:00 0.9 2 Norte 12 Oeste 0 -- -- 94
2020-01-15 20:00:00 2.1 5 Sudoeste 20 Sudoeste 0 -- -- 91
2020-01-15 19:00:00 3.6 9 Sudoeste 20 Sudoeste 0 -- -- 94
2020-01-15 18:00:00 3.6 4 Sudeste 13 Sudeste 0 -- -- 94
2020-01-15 17:00:00 3.3 4 Sudeste 8 Sudeste 0.2 -- -- 94
2020-01-15 16:00:00 3.2 4 Oeste 7 Sudoeste 0 -- -- 93
2020-01-15 15:00:00 3 2 Oeste 7 Sur 0 -- -- 93
2020-01-15 14:00:00 2.6 5 Sur 10 Sur 0.4 -- -- 93
2020-01-15 13:00:00 2.5 7 Sur 14 Sudeste 0 -- -- 91
2020-01-15 12:00:00 2.4 3 Sur 6 Sudoeste 0 -- -- 90
2020-01-15 11:00:00 1.7 0 Calma 4 Sudoeste 0 -- -- 92
2020-01-15 10:00:00 0.9 0 Calma 3 Sudeste 0 -- -- 92
2020-01-15 09:00:00 0.4 0 Calma 3 Sur 0 -- -- 90
2020-01-15 08:00:00 0.1 0 Calma 2 Norte 0 -- -- 91
2020-01-15 07:00:00 -0.3 2 Norte 3 Norte 0 -- -- 91
2020-01-15 06:00:00 -0.5 0 Calma 5 Sudoeste 0 -- -- 91
2020-01-15 05:00:00 -0.7 3 Oeste 9 Sudeste 0 -- -- 91
2020-01-15 04:00:00 -0.6 3 Sudeste 6 Sudeste 0 -- -- 90
2020-01-15 03:00:00 -0.6 0 Calma 3 Sudeste 0 -- -- 88
2020-01-15 02:00:00 -0.6 0 Calma 8 Sudoeste 0 -- -- 88
2020-01-15 01:00:00 -0.1 4 Sudoeste 10 Sudoeste 0 -- -- 86
2020-01-15 00:00:00 0.5 6 Sudoeste 12 Sudoeste 0 -- -- 86
2020-01-14 23:00:00 1 5 Sur 10 Sudoeste 0 -- -- 86
2020-01-14 22:00:00 1 0 Calma 12 Sur 0 -- -- 86
2020-01-14 21:00:00 0.4 3 Sudoeste 12 Oeste 0 -- -- 83
2020-01-14 20:00:00 1.1 3 Sur 15 Sudeste 0 -- -- 80
2020-01-14 19:00:00 1.8 6 Sur 16 Sudeste 0 -- -- 75
2020-01-14 18:00:00 2.7 11 Sudeste 26 Sur 0 -- -- 73
2020-01-14 17:00:00 4.1 15 Sur 27 Sur 0 -- -- 66
2020-01-14 16:00:00 5.7 17 Sur 27 Sur 0 -- -- 60
2020-01-14 15:00:00 6.3 17 Sur 27 Sur 0 -- -- 60
2020-01-14 14:00:00 5.6 17 Sur 27 Sur 0 -- -- 62
2020-01-14 13:00:00 5 15 Sudeste 24 Sudeste 0 -- -- 65
2020-01-14 12:00:00 4 10 Sur 16 Sudeste 0 -- -- 71
2020-01-14 11:00:00 3.1 5 Sur 9 Sudeste 0 -- -- 70
2020-01-14 10:00:00 -0.8 0 Calma 7 Norte 0 -- -- 87
2020-01-14 09:00:00 -4.2 3 Norte 5 Norte 0 -- -- 90
2020-01-14 08:00:00 -4.3 3 Norte 10 Norte 0 -- -- 88
2020-01-14 07:00:00 -4.1 4 Norte 6 Norte 0 -- -- 86
2020-01-14 06:00:00 -3.3 3 Norte 8 Nordeste 0 -- -- 84
2020-01-14 05:00:00 -2.5 5 Noroeste 10 Sur 0 -- -- 83
2020-01-14 04:00:00 -1.7 5 Sur 10 Sudeste 0 -- -- 78
2020-01-14 03:00:00 -2 2 Sur 14 Oeste 0 -- -- 71
2020-01-14 02:00:00 -3 3 Sudoeste 10 Norte 0 -- -- 74
2020-01-14 01:00:00 -2.7 4 Noroeste 11 Noroeste 0 -- -- 74
2020-01-14 00:00:00 -3.2 2 Oeste 12 Sudoeste 0 -- -- 79
2020-01-13 23:00:00 -2.9 2 Noroeste 11 Sudoeste 0 -- -- 77
2020-01-13 22:00:00 -2 2 Oeste 12 Sur 0 -- -- 72
2020-01-13 21:00:00 -1.5 3 Sudoeste 12 Sudoeste 0 -- -- 70
2020-01-13 20:00:00 -0.2 3 Sur 11 Sudeste 0 -- -- 63
2020-01-13 19:00:00 0.8 4 Sur 10 Este 0 -- -- 52
2020-01-13 18:00:00 4.6 3 Sudoeste 29 Sur 0 -- -- 40
2020-01-13 17:00:00 8.3 15 Este 37 Sudeste 0 -- -- 26
2020-01-13 16:00:00 7.4 12 Sudeste 23 Sudeste 0 -- -- 30
2020-01-13 15:00:00 6.5 4 Este 10 Sudeste 0 -- -- 49
2020-01-13 14:00:00 5.2 8 Sur 13 Sudeste 0 -- -- 58
2020-01-13 13:00:00 4.5 5 Sur 10 Sur 0 -- -- 61
2020-01-13 12:00:00 3.1 0 Calma 8 Sudeste 0 -- -- 60
2020-01-13 11:00:00 1.5 0 Calma 10 Sudoeste 0 -- -- 66
2020-01-13 10:00:00 -0.8 5 Norte 12 Norte 0 -- -- 73
2020-01-13 09:00:00 -2.8 6 Norte 10 Norte 0 -- -- 76
2020-01-13 08:00:00 -3.1 7 Norte 9 Norte 0 -- -- 77
2020-01-13 07:00:00 -2.9 6 Norte 9 Norte 0 -- -- 76
2020-01-13 06:00:00 -3.1 5 Norte 9 Norte 0 -- -- 74
2020-01-13 05:00:00 -2.8 6 Norte 12 Norte 0 -- -- 72
2020-01-13 04:00:00 -3.2 7 Norte 10 Norte 0 -- -- 74
2020-01-13 03:00:00 -2.3 5 Norte 12 Norte 0 -- -- 71
2020-01-13 02:00:00 -2.1 7 Norte 12 Norte 0 -- -- 72
2020-01-13 01:00:00 -1.9 6 Norte 11 Norte 0 -- -- 69
2020-01-13 00:00:00 -2 6 Norte 10 Norte 0 -- -- 70
2020-01-12 23:00:00 -1.8 8 Norte 11 Norte 0 -- -- 64
2020-01-12 22:00:00 -1.1 5 Norte 11 Norte 0 -- -- 63
2020-01-12 21:00:00 -0.7 6 Norte 12 Norte 0 -- -- 57
2020-01-12 20:00:00 2.2 9 Norte 17 Norte 0 -- -- 41
2020-01-12 19:00:00 2.4 6 Norte 13 Norte 0 -- -- 40
2020-01-12 18:00:00 5.1 10 Noroeste 15 Noroeste 0 -- -- 36
2020-01-12 17:00:00 9.6 8 Noroeste 14 Norte 0 -- -- 26
2020-01-12 16:00:00 10.9 12 Norte 20 Norte 0 -- -- 26
2020-01-12 15:00:00 10.9 10 Norte 31 Noroeste 0 -- -- 25
2020-01-12 14:00:00 10.5 19 Noroeste 32 Noroeste 0 -- -- 22
2020-01-12 13:00:00 10.6 18 Norte 29 Norte 0 -- -- 19
2020-01-12 12:00:00 9.7 17 Norte 30 Norte 0 -- -- 15
2020-01-12 11:00:00 8.9 15 Norte 33 Norte 0 -- -- 12
2020-01-12 10:00:00 7.1 23 Norte 35 Norte 0 -- -- 14
2020-01-12 09:00:00 4.3 20 Norte 28 Norte 0 -- -- 17
2020-01-12 08:00:00 -0.2 8 Noroeste 14 Noroeste 0 -- -- 29
2020-01-12 07:00:00 -1.7 6 Norte 13 Norte 0 -- -- 39
2020-01-12 06:00:00 -1.8 8 Norte 14 Norte 0 -- -- 45
2020-01-12 05:00:00 -1.7 2 Nordeste 14 Norte 0 -- -- 45
2020-01-12 04:00:00 -2.8 6 Norte 11 Norte 0 -- -- 55
2020-01-12 03:00:00 -3.3 3 Norte 9 Norte 0 -- -- 59
2020-01-12 02:00:00 -4.3 2 Norte 5 Norte 0 -- -- 62
2020-01-12 01:00:00 -3.9 3 Norte 5 Norte 0 -- -- 61
2020-01-12 00:00:00 -2.9 3 Norte 7 Norte 0 -- -- 57
2020-01-11 23:00:00 -2.7 3 Norte 8 Norte 0 -- -- 55
2020-01-11 22:00:00 -2.3 2 Norte 6 Norte 0 -- -- 57
2020-01-11 21:00:00 0.8 6 Norte 13 Noroeste 0 -- -- 45
2020-01-11 20:00:00 -1.1 3 Noroeste 16 Noroeste 0 -- -- 60
2020-01-11 19:00:00 -0.5 9 Norte 16 Norte 0 -- -- 65
2020-01-11 18:00:00 1.8 8 Norte 12 Norte 0 -- -- 57
2020-01-11 17:00:00 8 4 Sur 10 Sudeste 0 -- -- 33
2020-01-11 16:00:00 9.5 6 Sur 14 Sur 0 -- -- 31
2020-01-11 15:00:00 10.1 3 Sur 12 Sur 0 -- -- 25
2020-01-11 14:00:00 10.3 7 Sur 12 Sur 0 -- -- 32
2020-01-11 13:00:00 9.1 3 Sur 9 Sudoeste 0 -- -- 32
2020-01-11 12:00:00 7.3 0 Calma 6 Noroeste 0 -- -- 39
2020-01-11 11:00:00 3.9 5 Noroeste 12 Norte 0 -- -- 51
2020-01-11 10:00:00 1.5 7 Norte 11 Norte 0 -- -- 68
2020-01-11 09:00:00 -1.3 5 Noroeste 13 Norte 0 -- -- 75
2020-01-11 08:00:00 -0.7 12 Norte 27 Norte 0 -- -- 72
2020-01-11 07:00:00 -1 17 Norte 23 Norte 0 -- -- 75
2020-01-11 06:00:00 -0.5 13 Norte 18 Norte 0 -- -- 75
2020-01-11 05:00:00 -0.8 11 Noroeste 19 Noroeste 0 -- -- 84
2020-01-11 04:00:00 -1.1 9 Noroeste 25 Norte 0 -- -- 87
2020-01-11 03:00:00 -0.3 13 Norte 26 Norte 0 -- -- 85
2020-01-11 02:00:00 -0.8 10 Noroeste 16 Norte 0 -- -- 86
2020-01-11 01:00:00 -1 5 Oeste 17 Norte 0 -- -- 85
2020-01-11 00:00:00 0.3 6 Noroeste 21 Norte 0 -- -- 84
2020-01-10 23:00:00 0.9 14 Norte 34 Norte 0 -- -- 83
2020-01-10 22:00:00 1 16 Norte 38 Norte 0 -- -- 88
2020-01-10 21:00:00 1.2 24 Norte 42 Norte 0 -- -- 87
2020-01-10 20:00:00 1 21 Norte 37 Norte 0 -- -- 87
2020-01-10 19:00:00 1.6 12 Norte 37 Norte 0 -- -- 84
2020-01-10 18:00:00 1.8 16 Norte 37 Norte 0 -- -- 88
2020-01-10 17:00:00 2.5 21 Norte 37 Norte 0 -- -- 83
2020-01-10 16:00:00 2.6 23 Norte 45 Norte 0 -- -- 82
2020-01-10 15:00:00 3.1 27 Norte 49 Noroeste 0 -- -- 80
2020-01-10 14:00:00 2.8 25 Norte 48 Norte 0 -- -- 80
2020-01-10 13:00:00 3 24 Norte 44 Norte 0 -- -- 81
2020-01-10 12:00:00 2.2 20 Norte 55 Norte 0 -- -- 79
2020-01-10 11:00:00 1.8 36 Norte 62 Norte 0.2 -- -- 79
2020-01-10 10:00:00 1 32 Norte 54 Norte 0.2 -- -- 81
2020-01-10 09:00:00 0.4 22 Norte 36 Norte 0 -- -- 85
2020-01-10 08:00:00 0.9 12 Norte 27 Norte 0 -- -- 86
2020-01-10 07:00:00 0.9 8 Norte 27 Norte 0 -- -- 88
2020-01-10 06:00:00 1.2 15 Norte 39 Norte 0 -- -- 85
2020-01-10 05:00:00 1.3 30 Norte 44 Norte 0 -- -- 82
2020-01-10 04:00:00 1.5 21 Norte 33 Norte 0 -- -- 84
2020-01-10 03:00:00 2 15 Norte 28 Norte 0.2 -- -- 86
2020-01-10 02:00:00 2.3 14 Noroeste 20 Noroeste 0 -- -- 78
2020-01-10 01:00:00 4.3 12 Norte 31 Noroeste 0 -- -- 66
2020-01-10 00:00:00 5.7 15 Noroeste 26 Norte 0 -- -- 75
2020-01-09 23:00:00 4.8 4 Norte 8 Norte 0 -- -- 87
2020-01-09 22:00:00 5.8 5 Sudeste 9 Sudeste 0 -- -- 83
2020-01-09 21:00:00 6.7 5 Sudoeste 35 Noroeste 0 -- -- 75
2020-01-09 20:00:00 6.1 10 Oeste 19 Oeste 0 -- -- 81
2020-01-09 19:00:00 6.3 0 Calma 10 Sudeste 0 -- -- 82
2020-01-09 18:00:00 6.9 3 Nordeste 27 Sudoeste 0 -- -- 79
2020-01-09 17:00:00 7.9 9 Sur 31 Sudoeste 0 -- -- 77
2020-01-09 16:00:00 9.5 10 Sudoeste 33 Sudoeste 0 -- -- 71
2020-01-09 15:00:00 11.3 15 Sudoeste 34 Sudoeste 0 -- -- 68
2020-01-09 14:00:00 10.5 10 Sur 23 Sudeste 0 -- -- 66
2020-01-09 13:00:00 8.4 11 Sur 18 Sur 0 -- -- 73
2020-01-09 12:00:00 7.4 6 Sur 12 Sudeste 0 -- -- 76
2020-01-09 11:00:00 6.9 5 Sur 9 Sudeste 0 -- -- 80
2020-01-09 10:00:00 2.4 2 Norte 7 Norte 0 -- -- 94
2020-01-09 09:00:00 -0.2 4 Norte 9 Norte 0 -- -- 95
2020-01-09 08:00:00 -0.5 8 Norte 11 Norte 0 -- -- 95
2020-01-09 07:00:00 -1 5 Norte 10 Norte 0 -- -- 94
2020-01-09 06:00:00 -1 6 Norte 8 Norte 0 -- -- 93
2020-01-09 05:00:00 -0.1 5 Norte 9 Norte 0 -- -- 93
2020-01-09 04:00:00 0.4 7 Norte 12 Norte 0 -- -- 93
2020-01-09 03:00:00 0.6 6 Norte 12 Norte 0 -- -- 93
2020-01-09 02:00:00 0.6 6 Norte 11 Norte 0 -- -- 93
2020-01-09 01:00:00 0.9 8 Norte 11 Norte 0 -- -- 93
2020-01-09 00:00:00 0.6 6 Norte 10 Norte 0 -- -- 92
2020-01-08 23:00:00 1.4 8 Norte 10 Norte 0 -- -- 91
2020-01-08 22:00:00 1.4 5 Norte 10 Norte 0 -- -- 89
2020-01-08 21:00:00 2 6 Norte 10 Norte 0 -- -- 88
2020-01-08 20:00:00 3.5 8 Norte 10 Norte 0 -- -- 87
2020-01-08 19:00:00 4.7 6 Norte 9 Norte 0 -- -- 84
2020-01-08 18:00:00 8.8 2 Sur 14 Sudeste 0 -- -- 68
2020-01-08 17:00:00 12.1 9 Sur 13 Sudeste 0 -- -- 62
2020-01-08 16:00:00 14 7 Sudoeste 14 Sur 0 -- -- 56
2020-01-08 15:00:00 14.1 9 Sur 18 Sur 0 -- -- 56
2020-01-08 14:00:00 14.4 11 Sur 18 Sur 0 -- -- 54
2020-01-08 13:00:00 13.7 11 Norte 23 Noroeste 0 -- -- 54
2020-01-08 12:00:00 12.4 12 Norte 27 Norte 0 -- -- 56
2020-01-08 11:00:00 11.6 7 Norte 19 Nordeste 0 -- -- 60
2020-01-08 10:00:00 9.2 6 Norte 27 Noroeste 0 -- -- 73
2020-01-08 09:00:00 7.4 15 Norte 28 Norte 0 -- -- 80
2020-01-08 08:00:00 6.9 10 Noroeste 24 Noroeste 0 -- -- 79
2020-01-08 07:00:00 6.7 8 Noroeste 28 Norte 0 -- -- 80
2020-01-08 06:00:00 7.3 22 Norte 35 Norte 0 -- -- 76
2020-01-08 05:00:00 7 22 Norte 30 Noroeste 0 -- -- 75
2020-01-08 04:00:00 7.1 18 Noroeste 32 Noroeste 0 -- -- 70
2020-01-08 03:00:00 7.2 22 Noroeste 34 Norte 0 -- -- 64
2020-01-08 02:00:00 7.4 21 Noroeste 32 Noroeste 0 -- -- 57
2020-01-08 01:00:00 6.7 14 Noroeste 20 Noroeste 0 -- -- 56
2020-01-08 00:00:00 7.1 14 Norte 22 Noroeste 0 -- -- 45
2020-01-07 23:00:00 6.5 13 Norte 22 Norte 0 -- -- 48
2020-01-07 22:00:00 6.5 10 Noroeste 28 Norte 0 -- -- 46
2020-01-07 21:00:00 6.3 5 Norte 20 Noroeste 0 -- -- 47
2020-01-07 20:00:00 6.1 12 Norte 18 Norte 0 -- -- 48
2020-01-07 19:00:00 4.1 8 Norte 16 Noroeste 0 -- -- 52
2020-01-07 18:00:00 8.1 12 Noroeste 17 Noroeste 0 -- -- 39
2020-01-07 17:00:00 11.6 11 Norte 17 Norte 0 -- -- 31
2020-01-07 16:00:00 13.9 13 Norte 18 Noroeste 0 -- -- 27
2020-01-07 15:00:00 14.4 12 Norte 18 Norte 0 -- -- 25
2020-01-07 14:00:00 14.4 11 Norte 22 Noroeste 0 -- -- 23
2020-01-07 13:00:00 13.5 14 Norte 23 Norte 0 -- -- 22
2020-01-07 12:00:00 12.1 15 Norte 27 Norte 0 -- -- 22
2020-01-07 11:00:00 10.9 11 Norte 19 Noroeste 0 -- -- 25
2020-01-07 10:00:00 5.4 7 Noroeste 15 Nordeste 0 -- -- 37
2020-01-07 09:00:00 1.2 10 Norte 17 Norte 0 -- -- 43
2020-01-07 08:00:00 1.8 12 Norte 17 Noroeste 0 -- -- 43
2020-01-07 07:00:00 4.2 13 Norte 22 Norte 0 -- -- 34
2020-01-07 06:00:00 0.8 9 Norte 13 Norte 0 -- -- 46
2020-01-07 05:00:00 0.8 7 Norte 12 Noroeste 0 -- -- 50
2020-01-07 04:00:00 0.4 8 Norte 14 Norte 0 -- -- 54
2020-01-07 03:00:00 -0.7 2 Sur 11 Norte 0 -- -- 59
2020-01-07 02:00:00 0.5 9 Norte 13 Norte 0 -- -- 60
2020-01-07 01:00:00 0.4 6 Norte 9 Norte 0 -- -- 61
2020-01-07 00:00:00 1.4 13 Norte 18 Noroeste 0 -- -- 59
2020-01-06 23:00:00 2 6 Norte 17 Norte 0 -- -- 56
2020-01-06 22:00:00 1.9 9 Norte 15 Norte 0 -- -- 60
2020-01-06 21:00:00 1.7 5 Oeste 12 Noroeste 0 -- -- 61
2020-01-06 20:00:00 3.2 6 Norte 13 Norte 0 -- -- 57
2020-01-06 19:00:00 3.2 7 Norte 16 Norte 0 -- -- 65
2020-01-06 18:00:00 4.8 8 Norte 12 Norte 0 -- -- 64
2020-01-06 17:00:00 10.9 4 Sudoeste 9 Sur 0 -- -- 44
2020-01-06 16:00:00 11.7 6 Sur 9 Sur 0 -- -- 40
2020-01-06 15:00:00 12.7 4 Sur 12 Sur 0 -- -- 37
2020-01-06 14:00:00 12.3 6 Sur 11 Sur 0 -- -- 44
2020-01-06 13:00:00 11.2 6 Sur 10 Sudeste 0 -- -- 36
2020-01-06 12:00:00 10.2 6 Sur 10 Sur 0 -- -- 40
2020-01-06 11:00:00 8.8 0 Calma 12 Noroeste 0 -- -- 44
2020-01-06 10:00:00 3.9 10 Norte 17 Norte 0 -- -- 55